Time;durP1;ratioP1;P1;durP2;ratioP2;P2;SDS_P1;SDS_P2;PMS_P1;PMS_P2;Temp;Humidity;BMP_temperature;BMP_pressure;BME280_temperature;BME280_humidity;BME280_pressure;Samples;Min_cycle;Max_cycle;Signal;HPM_P1;HPM_P2
2022/08/28 00:00:58;;;;;;;32.80;8.40;;;;;;;21.57;100.00;98429.56;4282230;33;20041;-73
2022/08/28 00:03:24;;;;;;;14.82;7.53;;;;;;;21.47;100.00;98429.97;4262012;33;20063;-74
2022/08/28 00:05:50;;;;;;;13.18;8.40;;;;;;;21.33;100.00;98431.06;4254864;33;20465;-74
2022/08/28 00:08:17;;;;;;;21.02;8.88;;;;;;;21.38;100.00;98428.09;4243852;33;20035;-74
2022/08/28 00:10:44;;;;;;;21.05;9.05;;;;;;;20.89;100.00;98367.66;4272044;33;20670;-73
2022/08/28 00:13:17;;;;;;;19.83;8.20;;;;;;;21.14;100.00;98389.66;4282305;33;20484;-72
2022/08/28 00:15:46;;;;;;;17.20;8.73;;;;;;;21.34;100.00;98431.84;4281787;33;20383;-73
2022/08/28 00:18:12;;;;;;;16.40;9.27;;;;;;;21.21;100.00;98425.50;4268487;33;20179;-74
2022/08/28 00:20:40;;;;;;;19.50;8.75;;;;;;;20.98;100.00;98390.28;4266870;33;20138;-73
2022/08/28 00:23:07;;;;;;;15.50;9.35;;;;;;;21.20;100.00;98426.62;4268338;33;20060;-73
2022/08/28 00:25:34;;;;;;;16.65;8.68;;;;;;;21.21;100.00;98428.25;4267208;33;20210;-73
2022/08/28 00:28:05;;;;;;;21.92;8.57;;;;;;;21.31;100.00;98438.78;4266793;33;20034;-75
2022/08/28 00:30:34;;;;;;;14.68;8.60;;;;;;;21.05;100.00;98431.59;4242069;33;20528;-74
2022/08/28 00:33:06;;;;;;;13.95;8.45;;;;;;;21.39;100.00;98432.44;4227260;33;20039;-74
2022/08/28 00:35:34;;;;;;;22.65;8.90;;;;;;;21.07;100.00;98394.88;4253117;33;20423;-74
2022/08/28 00:38:00;;;;;;;17.98;8.20;;;;;;;21.12;100.00;98394.66;4252594;33;20060;-74
2022/08/28 00:40:29;;;;;;;19.37;9.18;;;;;;;21.27;100.00;98415.97;4281282;33;20469;-74
2022/08/28 00:42:56;;;;;;;17.60;9.35;;;;;;;21.36;100.00;98397.53;4311035;33;20048;-73
2022/08/28 00:45:24;;;;;;;13.62;8.45;;;;;;;21.55;100.00;98418.94;4311129;33;20147;-73
2022/08/28 00:47:50;;;;;;;16.48;7.68;;;;;;;21.50;100.00;98429.31;4308768;33;20055;-75
2022/08/28 00:50:28;;;;;;;21.02;8.10;;;;;;;21.33;100.00;98402.84;4310240;33;20078;-74
2022/08/28 00:52:59;;;;;;;18.87;8.60;;;;;;;21.17;100.00;98394.47;4340763;33;20024;-74
2022/08/28 00:55:28;;;;;;;22.70;8.20;;;;;;;21.30;100.00;98428.97;4353851;32;20073;-74
2022/08/28 00:57:58;;;;;;;16.98;8.73;;;;;;;21.45;100.00;98437.72;4352654;33;20442;-74
2022/08/28 01:00:33;;;;;;;17.85;7.60;;;;;;;21.62;100.00;98426.62;4352893;32;20846;-73
2022/08/28 01:03:02;;;;;;;14.23;7.15;;;;;;;21.52;100.00;98383.22;4319408;33;20442;-73
2022/08/28 01:05:29;;;;;;;16.87;7.55;;;;;;;21.60;100.00;98387.78;4310099;33;20050;-74
2022/08/28 01:07:57;;;;;;;16.62;8.27;;;;;;;21.42;100.00;98357.81;4322561;32;20075;-73
2022/08/28 01:10:29;;;;;;;15.45;7.80;;;;;;;21.63;100.00;98422.72;4355258;32;20409;-73
2022/08/28 01:12:56;;;;;;;20.92;7.82;;;;;;;21.63;100.00;98414.50;4354457;32;20389;-72
2022/08/28 01:15:31;;;;;;;16.48;7.43;;;;;;;21.80;100.00;98423.72;4352800;32;20028;-73
2022/08/28 01:18:02;;;;;;;10.30;7.20;;;;;;;21.75;100.00;98425.50;4351358;32;20028;-72
2022/08/28 01:20:32;;;;;;;18.65;7.50;;;;;;;21.65;100.00;98381.31;4353982;32;20063;-73
2022/08/28 01:23:13;;;;;;;13.48;6.25;;;;;;;21.86;100.00;98387.53;4353156;32;20126;-73
2022/08/28 01:25:41;;;;;;;13.27;6.10;;;;;;;21.99;100.00;98418.47;4360558;32;20101;-73
2022/08/28 01:28:11;;;;;;;12.40;6.40;;;;;;;22.08;100.00;98421.94;4368403;32;20044;-73
2022/08/28 01:30:40;;;;;;;20.55;7.12;;;;;;;22.09;100.00;98418.03;4352693;32;20031;-73
2022/08/28 01:33:06;;;;;;;16.08;6.68;;;;;;;22.09;100.00;98412.53;4357347;32;20036;-73
2022/08/28 01:35:36;;;;;;;17.35;6.15;;;;;;;22.07;100.00;98375.66;4383469;32;20061;-72
2022/08/28 01:38:03;;;;;;;10.43;6.20;;;;;;;22.12;100.00;98411.88;4386404;32;20105;-73
2022/08/28 01:40:35;;;;;;;15.15;5.45;;;;;;;22.01;100.00;98382.50;4367448;32;20071;-73
2022/08/28 01:43:05;;;;;;;;;;;;;;;22.21;100.00;98414.50;4367481;32;20065;-74
2022/08/28 01:45:31;;;;;;;10.55;5.70;;;;;;;22.41;100.00;98428.47;4355296;32;20227;-73
2022/08/28 01:47:57;;;;;;;9.45;5.72;;;;;;;22.31;100.00;98418.78;4382607;32;20044;-73
2022/08/28 01:50:24;;;;;;;12.68;6.22;;;;;;;22.24;100.00;98394.63;4340855;32;20062;-73
2022/08/28 01:52:50;;;;;;;15.60;6.47;;;;;;;22.21;100.00;98425.47;4323083;33;20028;-73
2022/08/28 01:55:17;;;;;;;17.73;6.53;;;;;;;21.93;100.00;98400.66;4306885;33;20378;-76
2022/08/28 01:57:46;;;;;;;8.07;5.57;;;;;;;22.11;100.00;98431.41;4309338;33;20061;-73
2022/08/28 02:00:14;;;;;;;12.07;5.32;;;;;;;22.24;100.00;98434.94;4293152;33;20130;-73
2022/08/28 02:02:41;;;;;;;13.02;5.45;;;;;;;22.07;100.00;98419.53;4295545;33;20037;-73
2022/08/28 02:05:09;;;;;;;8.10;5.43;;;;;;;22.28;100.00;98430.37;4306546;33;20059;-74
2022/08/28 02:07:36;;;;;;;12.82;5.40;;;;;;;22.41;100.00;98423.00;4299667;33;20051;-73
2022/08/28 02:10:05;;;;;;;10.70;5.90;;;;;;;22.09;100.00;98390.63;4293504;33;20110;-74
2022/08/28 02:12:31;;;;;;;8.30;5.28;;;;;;;22.31;100.00;98418.78;4306757;33;20062;-74
2022/08/28 02:14:58;;;;;;;10.00;4.87;;;;;;;22.14;100.00;98387.63;4308933;33;20191;-74
2022/08/28 02:17:31;;;;;;;15.70;5.32;;;;;;;22.06;100.00;98379.53;4306755;33;20058;-74
2022/08/28 02:19:58;;;;;;;6.87;4.95;;;;;;;21.99;100.00;98363.66;4308546;33;20045;-74
2022/08/28 02:22:25;;;;;;;6.78;4.93;;;;;;;22.23;100.00;98408.69;4322699;33;20028;-73
2022/08/28 02:24:51;;;;;;;10.07;4.78;;;;;;;22.25;100.00;98411.88;4334554;33;20434;-74
2022/08/28 02:27:18;;;;;;;11.82;4.72;;;;;;;22.05;100.00;98378.75;4348328;33;20040;-76
2022/08/28 02:29:45;;;;;;;18.02;5.68;;;;;;;22.25;100.00;98406.41;4353601;32;20058;-74
2022/08/28 02:32:12;;;;;;;11.43;4.87;;;;;;;22.23;100.00;98401.25;4358274;32;20053;-74
2022/08/28 02:34:39;;;;;;;19.52;5.22;;;;;;;21.95;100.00;98357.25;4353463;32;20371;-73
2022/08/28 02:37:07;;;;;;;10.43;5.15;;;;;;;21.96;100.00;98369.84;4322650;33;20419;-73
2022/08/28 02:39:33;;;;;;;13.82;4.93;;;;;;;22.16;100.00;98392.00;4309873;33;20088;-74
2022/08/28 02:42:00;;;;;;;7.80;4.22;;;;;;;21.95;100.00;98370.97;4321465;33;20057;-74
2022/08/28 02:44:26;;;;;;;8.68;5.10;;;;;;;22.08;100.00;98405.47;4322069;33;20033;-74
2022/08/28 02:46:53;;;;;;;7.53;5.15;;;;;;;21.76;100.00;98366.84;4322594;33;20090;-74
2022/08/28 02:49:19;;;;;;;11.48;5.37;;;;;;;21.89;100.00;98383.28;4320685;33;20037;-76
2022/08/28 02:51:55;;;;;;;6.55;4.47;;;;;;;21.99;100.00;98396.56;4323125;33;20033;-73
2022/08/28 02:54:23;;;;;;;7.37;5.20;;;;;;;21.88;100.00;98378.97;4323212;33;20040;-73
2022/08/28 02:56:49;;;;;;;9.02;4.70;;;;;;;22.13;100.00;98399.75;4310660;33;20055;-75
2022/08/28 02:59:15;;;;;;;13.93;4.47;;;;;;;22.19;100.00;98405.03;4307861;33;20066;-73
2022/08/28 03:01:43;;;;;;;9.52;4.85;;;;;;;22.05;100.00;98411.62;4308637;33;20074;-73
2022/08/28 03:04:09;;;;;;;7.62;4.75;;;;;;;21.32;100.00;98317.19;4293435;33;20059;-74
2022/08/28 03:06:35;;;;;;;9.05;4.72;;;;;;;21.98;100.00;98405.12;4279592;33;20449;-72
2022/08/28 03:09:04;;;;;;;8.35;4.82;;;;;;;21.84;100.00;98394.47;4302885;33;20044;-76
2022/08/28 03:11:30;;;;;;;7.82;4.45;;;;;;;22.12;100.00;98411.88;4307737;33;20080;-73
2022/08/28 03:13:57;;;;;;;10.95;4.68;;;;;;;21.93;100.00;98381.47;4320432;33;20066;-74
2022/08/28 03:16:24;;;;;;;7.20;4.57;;;;;;;21.88;100.00;98378.97;4324659;33;20152;-73
2022/08/28 03:18:50;;;;;;;8.15;4.55;;;;;;;21.92;100.00;98396.31;4338521;33;20486;-75
2022/08/28 03:21:17;;;;;;;8.05;4.43;;;;;;;21.82;100.00;98369.34;4339019;33;20179;-73
2022/08/28 03:23:49;;;;;;;7.15;4.93;;;;;;;22.04;100.00;98418.25;4324336;33;20053;-73
2022/08/28 03:26:18;;;;;;;6.15;5.05;;;;;;;22.00;100.00;98409.09;4353970;32;20035;-72
2022/08/28 03:28:48;;;;;;;11.07;4.35;;;;;;;21.92;100.00;98412.75;4354354;32;20489;-72
2022/08/28 03:31:19;;;;;;;7.50;5.03;;;;;;;21.78;100.00;98385.69;4353798;32;20081;-76
2022/08/28 03:33:46;;;;;;;9.27;4.12;;;;;;;22.03;100.00;98419.38;4345408;32;20093;-73
2022/08/28 03:36:15;;;;;;;7.47;4.62;;;;;;;22.01;100.00;98416.19;4355423;32;20101;-71
2022/08/28 03:38:42;;;;;;;9.05;4.30;;;;;;;21.97;100.00;98414.47;4341944;32;20067;-70
2022/08/28 03:41:10;;;;;;;8.75;4.30;;;;;;;21.80;100.00;98393.56;4323334;33;20037;-73
2022/08/28 03:43:37;;;;;;;8.10;4.30;;;;;;;22.00;100.00;98425.53;4324885;33;20086;-70
2022/08/28 03:46:06;;;;;;;8.32;4.78;;;;;;;21.86;100.00;98425.06;4314243;33;20194;-70
2022/08/28 03:48:35;;;;;;;8.98;4.47;;;;;;;21.92;100.00;98434.66;4281155;33;20037;-71
2022/08/28 03:51:10;;;;;;;6.12;4.28;;;;;;;21.91;100.00;98430.34;4282219;33;20084;-76
2022/08/28 03:53:37;;;;;;;8.52;4.78;;;;;;;21.66;100.00;98408.34;4282790;33;20037;-71
2022/08/28 03:56:09;;;;;;;11.77;4.47;;;;;;;21.86;100.00;98441.50;4282027;33;20075;-72
2022/08/28 03:58:35;;;;;;;;;;;;;;;21.72;100.00;98407.00;4267247;33;20092;-70
2022/08/28 04:01:02;;;;;;;9.73;4.28;;;;;;;22.05;100.00;98427.28;4264837;33;20298;-74
2022/08/28 04:03:28;;;;;;;9.77;5.53;;;;;;;21.97;100.00;98423.50;4267075;33;20068;-70
2022/08/28 04:05:58;;;;;;;13.02;5.07;;;;;;;21.86;100.00;98403.16;4295219;33;20539;-71
2022/08/28 04:08:28;;;;;;;8.10;4.70;;;;;;;22.04;100.00;98431.97;4297224;33;20033;-69
2022/08/28 04:11:06;;;;;;;15.10;4.70;;;;;;;22.01;100.00;98437.34;4296504;33;20060;-73
2022/08/28 04:13:36;;;;;;;9.10;4.37;;;;;;;22.04;100.00;98426.47;4296614;33;20046;-71
2022/08/28 04:16:12;;;;;;;9.82;4.22;;;;;;;21.66;100.00;98389.19;4295732;33;20041;-72
2022/08/28 04:18:40;;;;;;;14.23;4.47;;;;;;;21.92;100.00;98430.00;4295353;33;20059;-72
2022/08/28 04:21:29;;;;;;;6.53;4.30;;;;;;;21.75;100.00;98403.59;4311214;33;20471;-71
2022/08/28 04:23:59;;;;;;;7.15;4.45;;;;;;;21.99;100.00;98428.66;4328636;33;20058;-74
2022/08/28 04:26:35;;;;;;;8.80;4.28;;;;;;;21.90;100.00;98436.97;4326615;33;20502;-72
2022/08/28 04:29:03;;;;;;;13.70;4.30;;;;;;;21.87;100.00;98396.53;4331453;32;20524;-74
2022/08/28 04:31:30;;;;;;;7.00;4.25;;;;;;;21.75;100.00;98409.06;4360897;32;20052;-71
2022/08/28 04:33:58;;;;;;;6.93;4.60;;;;;;;21.99;100.00;98436.88;4359945;32;20053;-71
2022/08/28 04:36:24;;;;;;;12.43;4.82;;;;;;;;;;4364794;32;20051;-70
2022/08/28 04:38:50;;;;;;;8.25;4.05;;;;;;;21.90;100.00;98431.47;4366569;32;20395;-73
2022/08/28 04:41:17;;;;;;;13.18;5.55;;;;;;;21.97;100.00;98434.47;4347778;32;20057;-72
2022/08/28 04:43:44;;;;;;;9.40;5.22;;;;;;;22.12;100.00;98433.78;4350220;32;20077;-76
2022/08/28 04:46:13;;;;;;;16.33;4.82;;;;;;;22.17;100.00;98437.47;4338834;33;20066;-69
2022/08/28 04:48:41;;;;;;;5.25;4.75;;;;;;;21.93;100.00;98403.41;4340244;33;20370;-69
2022/08/28 04:51:09;;;;;;;8.23;4.18;;;;;;;22.20;100.00;98434.03;4338863;33;20033;-70
2022/08/28 04:53:37;;;;;;;9.35;4.87;;;;;;;22.20;100.00;98429.34;4340307;33;20401;-80
2022/08/28 04:56:07;;;;;;;5.87;5.28;;;;;;;22.37;100.00;98439.34;4340625;33;20032;-71
2022/08/28 04:58:34;;;;;;;9.50;5.12;;;;;;;22.36;100.00;98432.25;4354556;32;20035;-68
2022/08/28 05:01:10;;;;;;;5.97;4.95;;;;;;;22.14;100.00;98393.13;4353379;32;20113;-69
2022/08/28 05:03:36;;;;;;;6.07;5.22;;;;;;;22.31;100.00;98433.28;4342380;33;20048;-74
2022/08/28 05:06:03;;;;;;;12.63;5.95;;;;;;;22.48;100.00;98437.75;4354439;32;20365;-70
2022/08/28 05:08:30;;;;;;;21.05;6.93;;;;;;;22.28;100.00;98413.94;4351340;32;20054;-75
2022/08/28 05:10:57;;;;;;;10.35;5.65;;;;;;;22.40;100.00;98422.19;4338549;32;20062;-69
2022/08/28 05:13:24;;;;;;;9.18;5.32;;;;;;;22.41;100.00;98401.06;4346390;32;20205;-69
2022/08/28 05:15:51;;;;;;;7.93;5.07;;;;;;;22.32;100.00;98414.88;4351700;32;20374;-70
2022/08/28 05:18:20;;;;;;;8.57;4.80;;;;;;;22.51;100.00;98446.41;4344892;32;20214;-69
2022/08/28 05:20:49;;;;;;;10.80;5.70;;;;;;;22.48;100.00;98445.97;4345422;32;20095;-69
2022/08/28 05:23:19;;;;;;;12.70;6.18;;;;;;;22.53;100.00;98439.44;4351670;32;20058;-69
2022/08/28 05:25:48;;;;;;;8.30;5.87;;;;;;;22.48;100.00;98445.97;4352251;32;20100;-71
2022/08/28 05:28:18;;;;;;;7.45;5.80;;;;;;;22.49;100.00;98446.75;4308613;33;20052;-68
2022/08/28 05:30:47;;;;;;;8.95;6.12;;;;;;;22.52;100.00;98448.81;4309139;33;20032;-69
2022/08/28 05:33:15;;;;;;;9.88;6.35;;;;;;;22.32;100.00;98450.50;4279928;33;20029;-69
2022/08/28 05:35:50;;;;;;;11.85;6.53;;;;;;;22.34;100.00;98456.47;4279180;33;20090;-70
2022/08/28 05:38:24;;;;;;;12.02;6.07;;;;;;;22.25;100.00;98453.00;4279868;33;20061;-74
2022/08/28 05:40:51;;;;;;;16.37;7.28;;;;;;;22.34;100.00;98464.72;4279446;33;20041;-71
2022/08/28 05:43:18;;;;;;;8.55;6.53;;;;;;;22.51;100.00;98451.91;4263929;33;20045;-72
2022/08/28 05:45:45;;;;;;;13.02;5.43;;;;;;;22.47;100.00;98444.34;4262636;33;20029;-73
2022/08/28 05:48:15;;;;;;;15.73;6.03;;;;;;;22.42;100.00;98425.41;4267782;33;20197;-71
2022/08/28 05:50:47;;;;;;;12.80;6.55;;;;;;;22.57;100.00;98456.03;4266825;33;20141;-73
2022/08/28 05:53:18;;;;;;;7.90;6.12;;;;;;;22.60;100.00;98458.06;4265027;33;20380;-73
2022/08/28 05:55:44;;;;;;;20.48;6.70;;;;;;;22.27;100.00;98426.03;4263116;33;20056;-74
2022/08/28 05:58:30;;;;;;;25.45;6.75;;;;;;;22.25;100.00;98431.06;4265759;33;20120;-72
2022/08/28 06:01:15;;;;;;;7.47;6.68;;;;;;;22.45;100.00;98457.62;4287449;33;20045;-71
2022/08/28 06:03:46;;;;;;;12.30;7.25;;;;;;;22.62;100.00;98461.25;4289785;33;20147;-71
2022/08/28 06:06:12;;;;;;;15.50;6.90;;;;;;;22.65;100.00;98464.13;4319021;32;20099;-72
2022/08/28 06:08:39;;;;;;;11.27;7.15;;;;;;;22.43;100.00;98432.50;4353263;32;20057;-72
2022/08/28 06:11:06;;;;;;;11.27;7.55;;;;;;;22.78;100.00;98470.41;4344014;32;20070;-75
2022/08/28 06:13:33;;;;;;;13.93;7.40;;;;;;;22.88;100.00;98463.66;4336763;33;20494;-72
2022/08/28 06:16:00;;;;;;;19.02;7.85;;;;;;;22.96;100.00;98459.16;4345172;32;20097;-72
2022/08/28 06:18:27;;;;;;;13.10;7.20;;;;;;;22.91;100.00;98462.16;4351563;32;20067;-72
2022/08/28 06:20:53;;;;;;;12.68;7.20;;;;;;;22.84;100.00;98458.03;4353160;32;20048;-72
2022/08/28 06:23:21;;;;;;;8.18;6.82;;;;;;;23.06;100.00;98461.44;4350726;32;20110;-74
2022/08/28 06:25:49;;;;;;;12.77;7.82;;;;;;;22.67;100.00;98425.38;4353222;32;20047;-72
2022/08/28 06:28:20;;;;;;;11.50;8.18;;;;;;;22.74;100.00;98468.72;4350763;32;20454;-72
2022/08/28 06:30:46;;;;;;;14.90;8.38;;;;;;;22.51;100.00;98465.62;4322518;33;20032;-72
2022/08/28 06:33:15;;;;;;;14.20;7.55;;;;;;;22.48;100.00;98447.88;4322757;33;20078;-76
2022/08/28 06:35:44;;;;;;;17.35;9.15;;;;;;;22.69;100.00;98477.97;4236033;33;20572;-72
2022/08/28 06:38:11;;;;;;;16.52;9.82;;;;;;;22.66;100.00;98468.47;4237457;33;20072;-72
2022/08/28 06:40:49;;;;;;;13.20;8.40;;;;;;;22.70;100.00;98460.34;4236461;33;20042;-73
2022/08/28 06:43:17;;;;;;;17.12;8.63;;;;;;;22.89;100.00;98469.94;4219542;33;20086;-73
2022/08/28 06:45:46;;;;;;;13.15;7.87;;;;;;;22.53;100.00;98442.19;4223173;34;20064;-72
2022/08/28 06:48:15;;;;;;;14.73;8.90;;;;;;;22.65;100.00;98460.59;4195423;34;20028;-72
2022/08/28 06:50:44;;;;;;;13.25;8.45;;;;;;;22.79;100.00;98472.00;4221194;34;20086;-74
2022/08/28 06:53:14;;;;;;;16.85;8.80;;;;;;;22.80;100.00;98473.62;4198858;34;20062;-73
2022/08/28 06:55:40;;;;;;;23.67;9.45;;;;;;;23.14;100.00;98477.00;4197406;34;20044;-73
2022/08/28 06:58:08;;;;;;;20.73;10.65;;;;;;;23.12;100.00;98465.59;4197908;34;20065;-73
2022/08/28 07:00:35;;;;;;;17.75;9.38;;;;;;;22.98;100.00;98479.66;4201352;34;20407;-72
2022/08/28 07:03:09;;;;;;;12.55;9.30;;;;;;;22.92;100.00;98464.56;4239645;33;20076;-78
2022/08/28 07:05:35;;;;;;;21.30;9.65;;;;;;;22.76;100.00;98472.69;4238686;33;20039;-75
2022/08/28 07:08:01;;;;;;;15.18;10.07;;;;;;;22.49;100.00;98431.09;4259719;33;20092;-73
2022/08/28 07:10:30;;;;;;;14.90;9.15;;;;;;;22.76;100.00;98483.66;4253552;33;20041;-74
2022/08/28 07:12:59;;;;;;;22.23;9.05;;;;;;;22.73;100.00;98440.44;4253141;33;20068;-75
2022/08/28 07:15:26;;;;;;;18.70;10.50;;;;;;;23.08;100.00;98478.41;4281426;33;20475;-73
2022/08/28 07:17:53;;;;;;;16.42;10.02;;;;;;;23.06;100.00;98483.41;4281360;33;20066;-72
2022/08/28 07:20:26;;;;;;;15.65;11.00;;;;;;;23.06;100.00;98485.38;4295909;33;20033;-74
2022/08/28 07:22:53;;;;;;;28.70;11.40;;;;;;;22.96;100.00;98492.09;4295400;33;20076;-72
2022/08/28 07:25:20;;;;;;;22.80;10.52;;;;;;;23.28;100.00;98486.81;4289066;33;20180;-76
2022/08/28 07:27:46;;;;;;;17.67;10.45;;;;;;;23.21;100.00;98487.41;4310725;33;20052;-73
2022/08/28 07:30:13;;;;;;;18.25;11.38;;;;;;;23.40;100.00;98489.53;4310993;33;20040;-73
2022/08/28 07:32:40;;;;;;;21.05;10.10;;;;;;;23.64;100.00;98487.84;4295111;33;20037;-71
2022/08/28 07:35:06;;;;;;;15.18;10.05;;;;;;;23.68;100.00;98486.00;4295803;33;20055;-72
2022/08/28 07:37:33;;;;;;;14.95;9.23;;;;;;;23.74;100.00;98476.34;4306413;33;20370;-76
2022/08/28 07:39:59;;;;;;;13.55;9.60;;;;;;;23.64;100.00;98454.88;4315024;33;20082;-72
2022/08/28 07:45:10;;;;;;;18.17;9.57;;;;;;;23.72;100.00;98457.44;4284409;33;20033;-77
2022/08/28 07:47:37;;;;;;;12.52;9.43;;;;;;;24.21;100.00;98500.41;4288262;33;20408;-73
2022/08/28 07:50:04;;;;;;;21.73;8.77;;;;;;;24.08;100.00;98490.63;4281794;33;20364;-72
2022/08/28 07:52:30;;;;;;;13.05;8.55;;;;;;;24.03;100.00;98499.94;4282609;33;20437;-73
2022/08/28 07:54:56;;;;;;;12.57;8.05;;;;;;;24.52;100.00;98498.81;4282070;33;20090;-72
2022/08/28 07:57:23;;;;;;;13.07;8.48;;;;;;;24.66;100.00;98482.66;4280934;33;20045;-75
2022/08/28 07:59:51;;;;;;;13.40;7.78;;;;;;;24.37;100.00;98441.84;4280843;33;20041;-72
2022/08/28 08:02:17;;;;;;;14.10;9.07;;;;;;;24.47;100.00;98452.31;4282294;33;20041;-72
2022/08/28 08:04:50;;;;;;;19.00;8.00;;;;;;;24.71;100.00;98486.31;4309010;33;20048;-72
2022/08/28 08:07:16;;;;;;;16.45;9.95;;;;;;;24.73;100.00;98453.72;4325411;33;20378;-72
2022/08/28 08:09:43;;;;;;;14.07;8.60;;;;;;;24.92;100.00;98489.56;4288583;33;20059;-72
2022/08/28 08:12:12;;;;;;;11.25;7.47;;;;;;;24.49;100.00;98422.47;4289568;33;20123;-73
2022/08/28 08:14:40;;;;;;;14.20;8.25;;;;;;;24.81;100.00;98488.50;4291765;33;20478;-73
2022/08/28 08:17:07;;;;;;;14.52;8.10;;;;;;;25.19;100.00;98493.31;4288149;33;20034;-73
2022/08/28 08:19:34;;;;;;;15.23;7.30;;;;;;;24.94;100.00;98462.47;4280515;33;20211;-76
2022/08/28 08:22:01;;;;;;;10.18;7.72;;;;;;;25.27;100.00;98455.69;4292970;33;20046;-73
2022/08/28 08:24:29;;;;;;;17.65;8.35;;;;;;;25.34;100.00;98458.62;4296120;33;20394;-72
2022/08/28 08:26:59;;;;;;;15.15;7.45;;;;;;;25.36;100.00;98472.81;4289350;33;20045;-72
2022/08/28 08:29:26;;;;;;;10.07;7.72;;;;;;;25.72;100.00;98501.13;4290733;33;20070;-72
2022/08/28 08:32:01;;;;;;;10.10;7.25;;;;;;;25.40;100.00;98466.59;4266147;33;20156;-74
2022/08/28 08:34:28;;;;;;;11.80;8.00;;;;;;;25.79;100.00;98499.66;4267152;33;20058;-72
2022/08/28 08:36:54;;;;;;;10.88;8.20;;;;;;;25.49;100.00;98456.16;4266830;33;20034;-73
2022/08/28 08:39:20;;;;;;;13.88;8.13;;;;;;;25.87;100.00;98509.66;4268605;33;20052;-73
2022/08/28 08:41:52;;;;;;;16.10;8.60;;;;;;;25.95;100.00;98472.00;4264455;33;20050;-74
2022/08/28 08:44:41;;;;;;;11.52;8.52;;;;;;;26.14;100.00;98501.53;4266654;33;20146;-73
2022/08/28 08:47:29;;;;;;;15.90;8.65;;;;;;;26.18;100.00;98474.78;4265749;33;20038;-76
2022/08/28 08:50:03;;;;;;;15.80;7.97;;;;;;;26.19;100.00;98476.37;4273009;33;20382;-74
2022/08/28 08:52:49;;;;;;;12.90;8.68;;;;;;;26.00;100.00;98508.34;4299902;33;20049;-73
2022/08/28 08:55:23;;;;;;;13.27;9.02;;;;;;;26.00;100.00;98508.34;4320765;33;20737;-69
2022/08/28 08:58:11;;;;;;;13.00;9.27;;;;;;;25.81;100.00;98494.56;4335102;33;20142;-68
2022/08/28 09:01:08;;;;;;;18.52;9.07;;;;;;;26.15;100.00;98514.13;4338103;33;20058;-68
2022/08/28 09:03:56;;;;;;;11.50;7.40;;;;;;;26.26;100.00;98512.38;4327642;33;20040;-69
2022/08/28 09:06:31;;;;;;;17.23;9.10;;;;;;;26.32;100.00;98524.69;4320328;33;20202;-71
2022/08/28 09:09:02;;;;;;;10.07;9.07;;;;;;;26.16;100.00;98504.72;4319730;33;20126;-69
2022/08/28 09:11:40;;;;;;;13.52;9.73;;;;;;;26.46;100.00;98529.69;4333813;33;20155;-79
2022/08/28 09:14:23;;;;;;;15.55;9.50;;;;;;;25.97;100.00;98498.06;4369051;32;20063;-68
2022/08/28 09:16:51;;;;;;;20.00;10.00;;;;;;;26.03;100.00;98532.47;4360606;32;20434;-69
2022/08/28 09:19:20;;;;;;;23.52;10.48;;;;;;;26.28;100.00;98499.81;4376543;32;20043;-74
2022/08/28 09:21:49;;;;;;;14.32;8.60;;;;;;;26.06;100.00;98471.03;4365951;32;20077;-67
2022/08/28 09:24:22;;;;;;;15.75;8.13;;;;;;;25.89;100.00;98534.91;4383224;32;20057;-70
2022/08/28 09:26:57;;;;;;;14.23;8.90;;;;;;;25.97;100.00;98495.31;4383939;32;20069;-68
2022/08/28 09:29:29;;;;;;;10.35;8.30;;;;;;;25.98;100.00;98532.75;4368469;32;20114;-68
2022/08/28 09:31:56;;;;;;;16.17;9.05;;;;;;;26.09;100.00;98495.12;4363949;32;20448;-72
2022/08/28 09:34:32;;;;;;;16.00;9.32;;;;;;;26.55;100.00;98527.47;4367723;32;20040;-77
2022/08/28 09:37:00;;;;;;;15.88;8.60;;;;;;;26.61;100.00;98492.06;4378339;32;20038;-76
2022/08/28 09:39:36;;;;;;;16.02;9.50;;;;;;;26.91;100.00;98521.75;4383638;32;20043;-69
2022/08/28 09:45:12;;;;;;;;;;;;;;;27.18;100.00;98530.81;4387299;32;20117;-68
2022/08/28 09:47:42;;;;;;;14.90;8.77;;;;;;;26.86;100.00;98535.88;4387636;32;19935;-68
2022/08/28 09:50:17;;;;;;;12.13;8.30;;;;;;;26.08;100.00;98504.56;4350703;32;20049;-73
2022/08/28 09:52:45;;;;;;;14.95;9.38;;;;;;;25.89;100.00;98510.09;4350933;32;20157;-68
2022/08/28 09:55:18;;;;;;;11.25;8.48;;;;;;;25.85;100.00;98503.72;4351187;32;20547;-69
2022/08/28 09:57:47;;;;;;;15.50;8.57;;;;;;;26.57;100.00;98535.38;4349101;32;20085;-68
2022/08/28 10:00:15;;;;;;;17.27;9.77;;;;;;;26.80;100.00;98551.94;4321031;33;20056;-69
2022/08/28 10:02:44;;;;;;;13.50;9.77;;;;;;;26.56;100.00;98545.63;4317601;33;20028;-75
2022/08/28 10:05:16;;;;;;;16.08;10.90;;;;;;;26.23;100.00;98515.84;4322229;33;20166;-69
2022/08/28 10:08:01;;;;;;;16.05;9.40;;;;;;;26.25;100.00;98508.81;4320022;33;20103;-70
2022/08/28 10:10:52;;;;;;;16.58;9.02;;;;;;;26.45;100.00;98509.56;4318703;33;20048;-70
2022/08/28 10:13:34;;;;;;;15.50;9.15;;;;;;;26.64;100.00;98541.84;4321597;33;20058;-74
2022/08/28 10:16:18;;;;;;;21.10;9.60;;;;;;;26.79;100.00;98540.13;4320754;33;20115;-70
2022/08/28 10:19:23;;;;;;;17.23;8.55;;;;;;;26.89;100.00;98540.66;4320940;33;20058;-69
2022/08/28 10:22:05;;;;;;;17.65;8.70;;;;;;;27.14;100.00;98547.34;4339903;32;20047;-69
2022/08/28 10:24:50;;;;;;;11.48;8.20;;;;;;;26.64;100.00;98521.69;4352283;32;20055;-69
2022/08/28 10:27:35;;;;;;;18.55;8.32;;;;;;;26.83;100.00;98540.94;4352210;32;20148;-70
2022/08/28 10:30:10;;;;;;;14.05;7.20;;;;;;;27.35;100.00;98535.81;4351921;32;20430;-68
2022/08/28 10:32:58;;;;;;;10.35;8.43;;;;;;;27.59;100.00;98527.41;4383112;32;20080;-70
2022/08/28 10:36:15;;;;;;;11.35;7.65;;;;;;;27.37;100.00;98543.75;4382467;32;20348;-68
2022/08/28 10:38:58;;;;;;;11.45;6.82;;;;;;;27.21;100.00;98545.87;4380920;32;20055;-68
2022/08/28 10:41:39;;;;;;;8.32;6.40;;;;;;;27.25;100.00;98513.53;4333247;33;20102;-67
2022/08/28 10:44:18;;;;;;;14.25;7.68;;;;;;;27.71;100.00;98541.00;4337620;33;20048;-66
2022/08/28 10:46:54;;;;;;;9.95;7.72;;;;;;;27.59;100.00;98544.00;4336893;33;20052;-69
2022/08/28 10:49:35;;;;;;;10.32;7.10;;;;;;;27.74;100.00;98545.78;4336664;33;20079;-68
2022/08/28 10:52:14;;;;;;;11.75;6.68;;;;;;;27.45;100.00;98545.44;4338234;33;20028;-69
2022/08/28 10:54:56;;;;;;;12.35;9.40;;;;;;;27.15;100.00;98520.50;4339767;33;20078;-71
2022/08/28 10:57:42;;;;;;;12.82;7.72;;;;;;;27.32;100.00;98549.59;4339732;33;20040;-68
2022/08/28 11:00:20;;;;;;;12.85;7.25;;;;;;;26.93;100.00;98530.44;4339212;33;20137;-69
2022/08/28 11:03:13;;;;;;;13.98;7.93;;;;;;;27.03;100.00;98546.41;4338123;33;20062;-71
2022/08/28 11:05:51;;;;;;;15.48;7.70;;;;;;;27.36;100.00;98542.16;4338313;33;20135;-71
2022/08/28 11:08:32;;;;;;;15.48;7.53;;;;;;;26.71;100.00;98557.75;4336299;33;20473;-67
2022/08/28 11:11:05;;;;;;;16.25;7.45;;;;;;;27.21;100.00;98552.19;4318338;33;20109;-73
2022/08/28 11:13:45;;;;;;;15.57;7.07;;;;;;;27.47;100.00;98548.59;4322870;33;20109;-67
2022/08/28 11:16:35;;;;;;;10.25;7.20;;;;;;;27.70;100.00;98553.28;4321644;33;20096;-68
2022/08/28 11:19:20;;;;;;;12.70;7.53;;;;;;;27.79;100.00;98555.72;4321257;33;20064;-67
2022/08/28 11:22:12;;;;;;;18.25;7.28;;;;;;;27.85;100.00;98557.00;4279238;33;20123;-68
2022/08/28 11:25:16;;;;;;;14.20;6.93;;;;;;;27.95;100.00;98550.03;4277957;33;20052;-68
2022/08/28 11:30:57;;;;;;;23.92;6.85;;;;;;;28.17;100.00;98557.38;4276772;33;20202;-67
2022/08/28 11:33:40;;;;;;;13.65;8.35;;;;;;;27.85;100.00;98555.00;4278675;33;20105;-70
2022/08/28 11:36:32;;;;;;;11.38;7.60;;;;;;;28.00;100.00;98546.91;4278712;33;20021;-72
2022/08/28 11:39:16;;;;;;;14.50;7.68;;;;;;;27.87;100.00;98527.78;4277532;33;20071;-70
2022/08/28 11:42:12;;;;;;;9.20;6.78;;;;;;;28.03;100.00;98546.16;4265576;33;20074;-70
2022/08/28 11:44:44;;;;;;;12.27;7.32;;;;;;;28.28;100.00;98551.94;4299659;33;20061;-67
2022/08/28 11:47:34;;;;;;;14.73;7.68;;;;;;;28.13;100.00;98511.47;4314174;33;20113;-67